createdAt,value
2019-04-29T00:01:07.572Z,16.17
2019-04-29T00:03:36.801Z,16.97
2019-04-29T00:06:05.386Z,14.50
2019-04-29T00:08:33.832Z,14.73
2019-04-29T00:11:02.246Z,10.23
2019-04-29T00:13:31.090Z,16.77
2019-04-29T00:16:07.365Z,14.03
2019-04-29T00:18:53.821Z,13.73
2019-04-29T00:21:23.291Z,11.60
2019-04-29T00:24:03.299Z,16.23
2019-04-29T00:26:21.854Z,13.13
2019-04-29T00:28:50.472Z,15.80
2019-04-29T00:31:19.193Z,14.53
2019-04-29T00:33:47.703Z,13.43
2019-04-29T00:36:17.819Z,11.60
2019-04-29T00:38:47.934Z,13.70
2019-04-29T00:41:20.655Z,14.30
2019-04-29T00:43:53.528Z,16.17
2019-04-29T00:46:22.002Z,18.40
2019-04-29T00:48:50.443Z,20.43
2019-04-29T00:51:18.877Z,16.40
2019-04-29T00:53:49.051Z,19.90
2019-04-29T00:56:17.472Z,18.95
2019-04-29T00:58:45.911Z,19.53
2019-04-29T01:01:16.054Z,13.93
2019-04-29T01:03:44.538Z,12.10
2019-04-29T01:06:13.190Z,15.50
2019-04-29T01:08:41.594Z,19.57
2019-04-29T01:11:10.028Z,16.40
2019-04-29T01:13:38.583Z,16.50
2019-04-29T01:16:08.731Z,11.67
2019-04-29T01:18:37.426Z,10.38
2019-04-29T01:21:05.865Z,18.33
2019-04-29T01:23:35.893Z,16.73
2019-04-29T01:26:12.510Z,12.67
2019-04-29T01:28:42.589Z,17.57
2019-04-29T01:31:12.713Z,14.43
2019-04-29T01:33:41.251Z,15.30
2019-04-29T01:36:14.290Z,13.97
2019-04-29T01:38:44.308Z,14.33
2019-04-29T01:41:30.821Z,16.93
2019-04-29T01:44:03.807Z,12.95
2019-04-29T01:46:32.285Z,11.60
2019-04-29T01:49:00.732Z,15.73
2019-04-29T01:51:29.156Z,17.17
2019-04-29T01:53:57.567Z,13.70
2019-04-29T01:56:25.992Z,14.40
2019-04-29T01:58:54.414Z,12.53
2019-04-29T02:01:22.952Z,13.15
2019-04-29T02:03:51.467Z,17.73
2019-04-29T02:06:20.054Z,12.13
2019-04-29T02:08:49.350Z,13.93
2019-04-29T02:11:17.803Z,13.73
2019-04-29T02:13:46.231Z,17.67
2019-04-29T02:16:14.958Z,7.42
2019-04-29T02:18:43.482Z,11.63
2019-04-29T02:21:11.904Z,10.48
2019-04-29T02:23:58.290Z,12.20
2019-04-29T02:26:26.714Z,10.27
2019-04-29T02:28:55.127Z,15.07
2019-04-29T02:31:40.017Z,28.80
2019-04-29T02:34:08.924Z,15.13
2019-04-29T02:36:38.538Z,11.57
2019-04-29T02:39:16.843Z,13.67
2019-04-29T02:41:46.917Z,14.67
2019-04-29T02:44:15.485Z,88.30
2019-04-29T02:46:43.972Z,41.87
2019-04-29T02:49:12.432Z,31.33
2019-04-29T02:51:53.721Z,9.90
2019-04-29T02:54:24.001Z,22.65
2019-04-29T02:56:56.409Z,33.35
2019-04-29T02:59:29.010Z,10.80
2019-04-29T03:02:10.908Z,84.13
2019-04-29T03:04:57.516Z,19.00
2019-04-29T03:07:25.947Z,18.73
2019-04-29T03:09:54.499Z,25.17
2019-04-29T03:12:23.014Z,56.60
2019-04-29T03:14:51.430Z,38.20
2019-04-29T03:17:20.339Z,23.02
2019-04-29T03:20:08.839Z,28.10
2019-04-29T03:22:38.979Z,21.07
2019-04-29T03:25:07.618Z,41.57
2019-04-29T03:27:36.423Z,35.97
2019-04-29T03:30:06.723Z,13.50
2019-04-29T03:32:36.768Z,9.87
2019-04-29T03:35:08.831Z,7.97
2019-04-29T03:37:37.247Z,30.93
2019-04-29T03:40:06.277Z,26.37
2019-04-29T03:42:34.811Z,7.53
2019-04-29T03:45:04.319Z,5.65
2019-04-29T03:47:32.754Z,4.83
2019-04-29T03:50:01.663Z,4.80
2019-04-29T03:52:30.167Z,5.00
2019-04-29T03:54:58.651Z,5.23
2019-04-29T03:57:28.740Z,6.30
2019-04-29T03:59:57.259Z,5.63
2019-04-29T04:02:27.394Z,7.53
2019-04-29T04:05:06.754Z,6.63
2019-04-29T04:07:42.611Z,7.03
2019-04-29T04:10:11.378Z,6.13
2019-04-29T04:12:39.888Z,21.30
2019-04-29T04:15:08.598Z,20.17
2019-04-29T04:17:38.791Z,13.27
2019-04-29T04:20:08.327Z,20.82
2019-04-29T04:22:46.270Z,14.00
2019-04-29T04:25:15.397Z,8.60
2019-04-29T04:27:44.271Z,9.70
2019-04-29T04:30:13.018Z,11.73
2019-04-29T04:32:42.785Z,14.77
2019-04-29T04:35:11.879Z,55.78
2019-04-29T04:37:40.381Z,27.80
2019-04-29T04:40:12.583Z,63.80
2019-04-29T04:42:41.509Z,16.23
2019-04-29T04:45:12.036Z,10.58
2019-04-29T04:47:40.462Z,20.40
2019-04-29T04:50:09.265Z,14.63
2019-04-29T04:52:37.926Z,9.90
2019-04-29T04:55:07.747Z,11.70
2019-04-29T04:57:37.305Z,20.33
2019-04-29T05:00:09.582Z,11.03
2019-04-29T05:02:38.072Z,9.30
2019-04-29T05:05:08.330Z,10.23
2019-04-29T05:07:36.744Z,9.30
2019-04-29T05:10:05.981Z,9.00
2019-04-29T05:12:34.839Z,7.90
2019-04-29T05:15:03.321Z,9.23
2019-04-29T05:17:32.187Z,9.27
2019-04-29T05:20:00.617Z,7.87
2019-04-29T05:22:29.036Z,7.03
2019-04-29T05:24:57.469Z,11.87
2019-04-29T05:27:25.894Z,12.27
2019-04-29T05:29:54.791Z,12.13
2019-04-29T05:32:23.224Z,24.30
2019-04-29T05:34:56.034Z,29.87
2019-04-29T05:37:29.082Z,19.73
2019-04-29T05:39:57.502Z,23.07
2019-04-29T05:42:25.970Z,41.20
2019-04-29T05:47:56.976Z,37.83
2019-04-29T05:50:31.780Z,31.87
2019-04-29T05:53:11.629Z,33.78
2019-04-29T05:55:38.121Z,41.93
2019-04-29T05:58:12.323Z,27.47
2019-04-29T06:00:43.648Z,26.63
2019-04-29T06:03:12.078Z,28.12
2019-04-29T06:05:40.587Z,45.97
2019-04-29T06:08:09.175Z,19.00
2019-04-29T06:10:37.594Z,21.73
2019-04-29T06:13:06.087Z,17.55
2019-04-29T06:15:34.609Z,19.00
2019-04-29T06:18:03.090Z,21.10
2019-04-29T06:20:31.528Z,22.10
2019-04-29T06:23:00.211Z,23.33
2019-04-29T06:25:28.750Z,23.50
2019-04-29T06:27:57.236Z,23.60
2019-04-29T06:30:25.705Z,24.20
2019-04-29T06:32:54.118Z,24.30
2019-04-29T06:35:22.577Z,27.93
2019-04-29T06:37:51.058Z,24.70
2019-04-29T06:40:19.485Z,23.80
2019-04-29T06:42:49.348Z,21.47
2019-04-29T06:45:18.222Z,23.13
2019-04-29T06:47:46.966Z,25.77
2019-04-29T06:50:15.481Z,24.00
2019-04-29T06:52:43.910Z,22.47
2019-04-29T06:55:12.572Z,23.17
2019-04-29T06:57:41.002Z,23.90
2019-04-29T07:00:12.684Z,23.57
2019-04-29T07:02:41.119Z,29.27
2019-04-29T07:05:09.617Z,31.50
2019-04-29T07:07:38.130Z,34.37
2019-04-29T07:10:06.727Z,38.43
2019-04-29T07:12:35.146Z,31.13
2019-04-29T07:15:07.565Z,29.80
2019-04-29T07:17:36.405Z,29.17
2019-04-29T07:20:06.733Z,29.13
2019-04-29T07:22:35.222Z,30.33
2019-04-29T07:25:03.921Z,25.73
2019-04-29T07:27:34.518Z,25.33
2019-04-29T07:30:08.429Z,26.35
2019-04-29T07:32:36.989Z,25.57
2019-04-29T07:35:09.941Z,24.00
2019-04-29T07:37:37.306Z,22.83
2019-04-29T07:40:07.942Z,24.20
2019-04-29T07:42:36.818Z,22.57
2019-04-29T07:45:17.324Z,23.00
2019-04-29T07:47:56.276Z,21.60
2019-04-29T07:50:17.826Z,22.05
2019-04-29T07:52:49.923Z,20.20
2019-04-29T07:55:16.670Z,19.20
2019-04-29T07:57:47.680Z,19.33
2019-04-29T08:00:18.606Z,21.27
2019-04-29T08:02:47.037Z,18.47
2019-04-29T08:05:15.515Z,19.07
2019-04-29T08:07:43.963Z,19.83
2019-04-29T08:10:23.336Z,18.03
2019-04-29T08:12:44.718Z,20.43
2019-04-29T08:15:13.223Z,19.70
2019-04-29T08:17:41.761Z,19.60
2019-04-29T08:20:10.490Z,22.13
2019-04-29T08:22:38.943Z,20.80
2019-04-29T08:25:08.578Z,21.37
2019-04-29T08:27:40.823Z,19.50
2019-04-29T08:30:11.229Z,19.63
2019-04-29T08:32:38.156Z,19.30
2019-04-29T08:35:06.910Z,23.07
2019-04-29T08:37:35.366Z,19.47
2019-04-29T08:40:16.010Z,18.30
2019-04-29T08:42:41.368Z,17.03
2019-04-29T08:45:13.991Z,17.57
2019-04-29T08:47:44.054Z,17.73
2019-04-29T08:50:12.623Z,15.65
2019-04-29T08:52:41.609Z,17.70
2019-04-29T08:55:10.183Z,15.35
2019-04-29T08:57:38.607Z,16.93
2019-04-29T09:00:09.286Z,15.47
2019-04-29T09:02:41.264Z,16.47
2019-04-29T09:05:11.429Z,15.73
2019-04-29T09:07:38.577Z,14.80
2019-04-29T09:10:09.216Z,12.70
2019-04-29T09:12:37.729Z,14.03
2019-04-29T09:15:08.344Z,14.50
2019-04-29T09:17:36.839Z,12.60
2019-04-29T09:20:06.792Z,13.43
2019-04-29T09:22:36.877Z,13.97
2019-04-29T09:25:26.367Z,13.50
2019-04-29T09:28:15.107Z,14.50
2019-04-29T09:30:41.274Z,13.13
2019-04-29T09:33:13.160Z,12.47
2019-04-29T09:35:40.588Z,14.40
2019-04-29T09:38:09.208Z,15.13
2019-04-29T09:40:39.264Z,16.27
2019-04-29T09:43:15.829Z,14.50
2019-04-29T09:45:41.145Z,11.73
2019-04-29T09:48:09.572Z,14.90
2019-04-29T09:50:39.202Z,12.47
2019-04-29T09:53:08.177Z,15.07
2019-04-29T09:55:40.109Z,15.30
2019-04-29T09:58:07.084Z,15.37
2019-04-29T10:00:40.807Z,12.60
2019-04-29T10:03:08.926Z,13.53
2019-04-29T10:05:41.960Z,9.67
2019-04-29T10:08:10.415Z,13.55
2019-04-29T10:10:38.912Z,14.77
2019-04-29T10:13:07.434Z,12.07
2019-04-29T10:16:00.462Z,13.83
2019-04-29T10:18:34.243Z,15.90
2019-04-29T10:21:04.300Z,15.23
2019-04-29T10:23:32.738Z,12.50
2019-04-29T10:26:01.255Z,15.80
2019-04-29T10:28:29.686Z,13.63
2019-04-29T10:30:58.323Z,14.60
2019-04-29T10:33:26.897Z,12.37
2019-04-29T10:35:55.315Z,11.73
2019-04-29T10:38:23.741Z,13.20
2019-04-29T10:41:02.350Z,11.37
2019-04-29T10:43:44.679Z,12.77
2019-04-29T10:46:14.902Z,12.63
2019-04-29T10:48:44.966Z,11.13
2019-04-29T10:51:15.103Z,11.40
2019-04-29T10:53:46.745Z,11.30
2019-04-29T10:56:14.095Z,10.15
2019-04-29T10:58:42.782Z,10.53
2019-04-29T11:01:40.193Z,13.67
2019-04-29T11:04:08.952Z,12.13
2019-04-29T11:06:37.687Z,11.30
2019-04-29T11:09:14.484Z,11.37
2019-04-29T11:11:44.303Z,11.53
2019-04-29T11:14:12.714Z,12.50
2019-04-29T11:16:46.423Z,10.23
2019-04-29T11:19:11.310Z,12.70
2019-04-29T11:21:39.734Z,10.07
2019-04-29T11:24:12.331Z,12.63
2019-04-29T11:26:44.684Z,10.93
2019-04-29T11:29:12.552Z,10.23
2019-04-29T11:31:41.240Z,11.37
2019-04-29T11:34:23.351Z,10.87
2019-04-29T11:36:52.120Z,9.53
2019-04-29T11:39:20.546Z,10.00
2019-04-29T11:41:50.161Z,8.80
2019-04-29T11:44:22.017Z,10.75
2019-04-29T11:46:50.613Z,9.83
2019-04-29T11:49:20.820Z,9.40
2019-04-29T11:52:08.696Z,9.93
2019-04-29T11:54:19.409Z,10.35
2019-04-29T11:56:47.986Z,9.37
2019-04-29T11:59:18.143Z,9.68
2019-04-29T12:01:52.058Z,7.13
2019-04-29T12:04:35.097Z,8.27
2019-04-29T12:07:03.746Z,8.47
2019-04-29T12:09:33.035Z,8.10
2019-04-29T12:12:02.095Z,8.57
2019-04-29T12:14:33.691Z,8.90
2019-04-29T12:17:22.059Z,9.03
2019-04-29T12:19:57.940Z,7.83
2019-04-29T12:22:30.742Z,7.57
2019-04-29T12:24:56.535Z,11.77
2019-04-29T12:27:24.954Z,7.63
2019-04-29T12:29:54.393Z,8.13
2019-04-29T12:32:36.912Z,8.67
2019-04-29T12:35:08.012Z,9.53
2019-04-29T12:37:38.075Z,9.33
2019-04-29T12:40:25.072Z,8.13
2019-04-29T12:43:16.230Z,11.63
2019-04-29T12:45:53.563Z,7.27
2019-04-29T12:48:24.747Z,8.60
2019-04-29T12:50:57.109Z,8.57
2019-04-29T12:53:21.172Z,8.30
2019-04-29T12:55:53.471Z,8.80
2019-04-29T12:58:23.915Z,5.83
2019-04-29T13:01:00.113Z,10.33
2019-04-29T13:03:30.865Z,7.50
2019-04-29T13:06:03.812Z,7.43
2019-04-29T13:08:33.952Z,6.00
2019-04-29T13:11:04.015Z,8.17
2019-04-29T13:13:32.448Z,8.00
2019-04-29T13:16:20.820Z,9.28
2019-04-29T13:18:54.054Z,8.57
2019-04-29T13:21:21.370Z,8.90
2019-04-29T13:23:59.558Z,7.97
2019-04-29T13:26:27.885Z,7.83
2019-04-29T13:29:00.453Z,7.33
2019-04-29T13:31:20.535Z,7.47
2019-04-29T13:33:52.786Z,7.80
2019-04-29T13:36:25.876Z,8.23
2019-04-29T13:38:50.079Z,8.40
2019-04-29T13:41:25.683Z,8.07
2019-04-29T13:43:49.560Z,9.20
2019-04-29T13:46:22.511Z,8.18
2019-04-29T13:49:13.570Z,8.00
2019-04-29T13:51:39.385Z,6.00
2019-04-29T13:54:07.807Z,8.43
2019-04-29T13:56:54.808Z,7.97
2019-04-29T13:59:10.724Z,5.33
2019-04-29T14:01:58.650Z,5.30
2019-04-29T14:04:29.500Z,5.20
2019-04-29T14:06:58.053Z,5.90
2019-04-29T14:09:26.597Z,6.13
2019-04-29T14:12:02.863Z,5.57
2019-04-29T14:14:28.154Z,5.03
2019-04-29T14:17:11.909Z,5.53
2019-04-29T14:19:44.278Z,5.40
2019-04-29T14:21:59.061Z,6.83
2019-04-29T14:24:27.487Z,5.00
2019-04-29T14:26:55.954Z,5.37
2019-04-29T14:29:28.130Z,6.10
2019-04-29T14:31:59.100Z,5.53
2019-04-29T14:34:30.683Z,5.07
2019-04-29T14:37:18.301Z,6.50
2019-04-29T14:39:36.631Z,6.67
2019-04-29T14:42:00.122Z,7.17
2019-04-29T14:44:31.406Z,6.33
2019-04-29T14:47:01.626Z,6.47
2019-04-29T14:49:35.408Z,5.58
2019-04-29T14:52:08.329Z,5.10
2019-04-29T14:54:36.835Z,6.40
2019-04-29T14:57:08.892Z,5.57
2019-04-29T14:59:39.269Z,6.07
2019-04-29T15:02:17.094Z,5.33
2019-04-29T15:04:44.847Z,5.93
2019-04-29T15:07:13.352Z,5.17
2019-04-29T15:09:58.274Z,4.63
2019-04-29T15:12:29.996Z,6.00
2019-04-29T15:15:05.813Z,5.30
2019-04-29T15:17:51.144Z,6.67
2019-04-29T15:20:25.094Z,5.50
2019-04-29T15:22:51.392Z,5.47
2019-04-29T15:25:20.986Z,5.00
2019-04-29T15:27:52.463Z,4.30
2019-04-29T15:30:20.883Z,3.80
2019-04-29T15:32:53.208Z,4.10
2019-04-29T15:35:19.785Z,4.58
2019-04-29T15:37:49.762Z,5.10
2019-04-29T15:40:20.650Z,3.90
2019-04-29T15:42:51.213Z,4.93
2019-04-29T15:45:18.486Z,6.47
2019-04-29T15:47:47.231Z,6.33
2019-04-29T15:50:18.693Z,5.08
2019-04-29T15:52:45.930Z,4.97
2019-04-29T15:55:14.823Z,4.95
2019-04-29T15:57:49.393Z,6.57
2019-04-29T16:00:21.877Z,7.23
2019-04-29T16:02:45.516Z,6.77
2019-04-29T16:05:33.942Z,4.55
2019-04-29T16:08:06.618Z,5.13
2019-04-29T16:10:51.803Z,4.77
2019-04-29T16:13:22.534Z,4.20
2019-04-29T16:15:49.490Z,5.33
2019-04-29T16:18:17.957Z,5.23
2019-04-29T16:20:46.394Z,4.93
2019-04-29T16:23:14.826Z,5.03
2019-04-29T16:25:46.336Z,5.77
2019-04-29T16:28:13.482Z,6.55
2019-04-29T16:30:42.002Z,4.00
2019-04-29T16:33:14.077Z,5.97
2019-04-29T16:35:40.759Z,4.37
2019-04-29T16:38:11.524Z,4.43
2019-04-29T16:40:41.372Z,5.07
2019-04-29T16:43:11.626Z,5.67
2019-04-29T16:45:51.492Z,4.10
2019-04-29T16:48:17.786Z,5.13
2019-04-29T16:50:46.218Z,4.47
2019-04-29T16:53:14.662Z,5.47
2019-04-29T16:55:44.359Z,6.10
2019-04-29T16:58:18.184Z,6.85
2019-04-29T17:00:46.658Z,5.43
2019-04-29T17:03:13.456Z,6.20
2019-04-29T17:05:41.998Z,3.80
2019-04-29T17:08:15.069Z,4.53
2019-04-29T17:10:52.259Z,6.37
2019-04-29T17:13:23.714Z,6.57
2019-04-29T17:15:52.097Z,5.73
2019-04-29T17:18:21.135Z,6.53
2019-04-29T17:20:49.625Z,8.17
2019-04-29T17:23:24.262Z,6.97
2019-04-29T17:25:48.219Z,6.67
2019-04-29T17:28:25.453Z,8.50
2019-04-29T17:31:12.278Z,6.33
2019-04-29T17:33:50.015Z,7.13
2019-04-29T17:36:18.577Z,6.95
2019-04-29T17:38:45.910Z,6.53
2019-04-29T17:41:14.326Z,8.30
2019-04-29T17:43:56.447Z,7.87
2019-04-29T17:46:38.614Z,6.73
2019-04-29T17:49:29.476Z,7.40
2019-04-29T17:52:01.489Z,6.23
2019-04-29T17:54:36.294Z,8.47
2019-04-29T17:57:26.333Z,8.40
2019-04-29T18:00:08.524Z,9.07
2019-04-29T18:02:41.322Z,7.53
2019-04-29T18:05:26.919Z,6.67
2019-04-29T18:07:55.409Z,8.53
2019-04-29T18:10:32.842Z,6.50
2019-04-29T18:13:01.449Z,7.00
2019-04-29T18:15:40.701Z,7.83
2019-04-29T18:18:07.246Z,7.37
2019-04-29T18:20:47.214Z,7.67
2019-04-29T18:23:20.054Z,6.33
2019-04-29T18:25:58.762Z,6.30
2019-04-29T18:28:27.378Z,9.97
2019-04-29T18:30:57.877Z,8.10
2019-04-29T18:33:30.038Z,8.23
2019-04-29T18:36:03.825Z,7.07
2019-04-29T18:38:26.508Z,10.50
2019-04-29T18:40:55.864Z,11.53
2019-04-29T18:43:26.549Z,8.67
2019-04-29T18:45:58.328Z,8.90
2019-04-29T18:48:26.866Z,9.30
2019-04-29T18:50:56.852Z,9.90
2019-04-29T18:53:25.593Z,9.28
2019-04-29T18:55:55.066Z,9.70
2019-04-29T18:58:25.000Z,11.97
2019-04-29T19:00:56.079Z,10.13
2019-04-29T19:03:29.828Z,12.77
2019-04-29T19:05:57.394Z,9.10
2019-04-29T19:08:28.543Z,10.57
2019-04-29T19:10:56.048Z,8.90
2019-04-29T19:13:26.049Z,9.30
2019-04-29T19:16:08.715Z,11.13
2019-04-29T19:18:25.463Z,10.17
2019-04-29T19:20:57.050Z,10.03
2019-04-29T19:23:29.453Z,10.83
2019-04-29T19:25:55.814Z,9.07
2019-04-29T19:28:30.916Z,16.67
2019-04-29T19:30:56.139Z,8.17
2019-04-29T19:33:25.234Z,11.90
2019-04-29T19:35:55.443Z,10.27
2019-04-29T19:38:25.381Z,9.57
2019-04-29T19:40:54.130Z,10.97
2019-04-29T19:43:22.566Z,10.30
2019-04-29T19:45:51.001Z,9.37
2019-04-29T19:48:22.368Z,9.23
2019-04-29T19:51:06.407Z,11.17
2019-04-29T19:53:19.730Z,11.43
2019-04-29T19:55:48.157Z,8.60
2019-04-29T19:58:17.009Z,8.60
2019-04-29T20:00:47.346Z,11.33
2019-04-29T20:03:23.302Z,8.67
2019-04-29T20:05:48.516Z,10.07
2019-04-29T20:08:37.858Z,11.23
2019-04-29T20:10:51.041Z,9.17
2019-04-29T20:13:18.041Z,11.90
2019-04-29T20:15:51.646Z,9.97
2019-04-29T20:18:40.687Z,10.00
2019-04-29T20:21:20.579Z,9.73
2019-04-29T20:23:40.369Z,11.87
2019-04-29T20:26:15.684Z,10.87
2019-04-29T20:28:40.763Z,10.63
2019-04-29T20:31:20.917Z,11.23
2019-04-29T20:33:42.149Z,11.37
2019-04-29T20:36:10.197Z,10.57
2019-04-29T20:38:39.194Z,11.63
2019-04-29T20:41:08.452Z,10.83
2019-04-29T20:43:37.164Z,12.97
2019-04-29T20:46:05.834Z,12.17
2019-04-29T20:48:36.806Z,10.30
2019-04-29T20:51:12.905Z,11.90
2019-04-29T20:53:39.807Z,11.50
2019-04-29T20:56:12.261Z,13.20
2019-04-29T20:58:37.440Z,10.80
2019-04-29T21:01:11.125Z,13.30
2019-04-29T21:03:40.966Z,13.40
2019-04-29T21:06:08.027Z,11.07
2019-04-29T21:08:36.447Z,13.10
2019-04-29T21:11:14.245Z,13.80
2019-04-29T21:13:55.956Z,16.63
2019-04-29T21:16:29.157Z,12.03
2019-04-29T21:18:57.535Z,14.57
2019-04-29T21:21:26.034Z,11.93
2019-04-29T21:23:55.279Z,12.13
2019-04-29T21:26:26.097Z,11.60
2019-04-29T21:28:55.555Z,13.43
2019-04-29T21:31:25.484Z,11.80
2019-04-29T21:33:57.457Z,11.37
2019-04-29T21:36:26.609Z,11.47
2019-04-29T21:39:01.934Z,12.70
2019-04-29T21:41:32.007Z,10.33
2019-04-29T21:44:01.802Z,11.73
2019-04-29T21:46:30.567Z,11.87
2019-04-29T21:48:58.987Z,10.33
2019-04-29T21:51:27.426Z,10.60
2019-04-29T21:53:56.117Z,11.00
2019-04-29T21:56:25.808Z,9.93
2019-04-29T21:58:54.431Z,8.73
2019-04-29T22:01:25.016Z,8.03
2019-04-29T22:03:53.149Z,8.67
2019-04-29T22:06:24.722Z,10.20
2019-04-29T22:08:54.244Z,8.53
2019-04-29T22:11:22.721Z,9.58
2019-04-29T22:13:51.183Z,9.43
2019-04-29T22:16:19.638Z,9.20
2019-04-29T22:18:52.119Z,9.30
2019-04-29T22:21:21.946Z,10.20
2019-04-29T22:23:51.230Z,9.87
2019-04-29T22:26:23.398Z,8.50
2019-04-29T22:28:49.006Z,9.07
2019-04-29T22:31:18.903Z,9.37
2019-04-29T22:33:49.032Z,6.83
2019-04-29T22:36:18.194Z,8.78
2019-04-29T22:38:48.701Z,8.40
2019-04-29T22:41:25.852Z,7.60
2019-04-29T22:43:56.617Z,8.10
2019-04-29T22:46:25.531Z,8.90
2019-04-29T22:48:55.721Z,8.75
2019-04-29T22:51:25.412Z,8.57
2019-04-29T22:53:55.814Z,7.27
2019-04-29T22:56:27.643Z,7.23
2019-04-29T22:58:55.964Z,8.47
2019-04-29T23:01:25.948Z,8.30
2019-04-29T23:03:55.413Z,7.23
2019-04-29T23:06:25.833Z,8.60
2019-04-29T23:08:55.986Z,7.37
2019-04-29T23:11:24.396Z,7.08
2019-04-29T23:13:53.125Z,9.10
2019-04-29T23:16:21.542Z,7.97
2019-04-29T23:18:50.091Z,7.77
2019-04-29T23:21:23.043Z,9.67
2019-04-29T23:24:13.231Z,8.03
2019-04-29T23:26:42.324Z,10.53
2019-04-29T23:29:10.210Z,9.23
2019-04-29T23:31:38.737Z,13.10
2019-04-29T23:34:07.264Z,8.60
2019-04-29T23:36:37.330Z,9.07
2019-04-29T23:39:06.513Z,8.63
2019-04-29T23:41:36.651Z,9.40
2019-04-29T23:44:08.851Z,10.73
2019-04-29T23:46:35.567Z,9.00
2019-04-29T23:49:06.796Z,11.50
2019-04-29T23:51:37.706Z,11.33
2019-04-29T23:54:07.929Z,9.63
2019-04-29T23:56:46.599Z,10.17
2019-04-29T23:59:35.075Z,9.10
